MiSS Molly — WCZ7602 — position and weather

sailwx.info

Track history (hours):
 
Tides and Currents Weather Stations Pressure Air Temp Water Temp Dewpoint Dewpoint Depression Visibility Wind Speed Wind Dir Waves Ship Positions

MiSS Molly

Owner: LONGLEY, WALTER A, TOPSHAM, ME. More information available from US FCC via Universal Licensing System and Coast Guard Vessel Documentation Center.

Last reported at 2017-Dec-09 22:46 UTC. Time now 2018-May-20 12:08 UTC.
Position N 45°24' W 083°28'.
Warning: this ship's position is months out of date.

Length 194 m; draft 7.1 m.

Type: Cargo ship. MMSI: 366938760.

Date/timePositionNaut miles runAvg speedWind from/ knotsBaromVisibWave heightAir tempDewpointWater temp
2017-Dec-09 22:46N 45°24' W 083°28'312.1
2017-Dec-09 22:30N 45°24' W 083°32'612.0
2017-Dec-09 22:00N 45°26' W 083°41'5 9.0
2017-Dec-09 21:30N 45°25' W 083°47'0 0.3
2017-Dec-09 21:00N 45°25' W 083°47'0 0.0
2017-Dec-09 20:30N 45°25' W 083°47'0 0.1
2017-Dec-09 20:00N 45°25' W 083°47'0 0.0
2017-Dec-09 19:30N 45°25' W 083°47'0 0.0
2017-Dec-09 19:00N 45°25' W 083°47'0 0.0
2017-Dec-09 18:30N 45°25' W 083°47'0 0.0
2017-Dec-09 18:00N 45°25' W 083°47'0 0.0
2017-Dec-09 17:30N 45°25' W 083°47'0 0.0
2017-Dec-09 17:00N 45°25' W 083°47'0 0.0
2017-Dec-09 16:31N 45°25' W 083°47'0 0.0
2017-Dec-09 16:00N 45°25' W 083°47'0 0.0
2017-Dec-09 15:30N 45°25' W 083°47'0 0.0
2017-Dec-09 15:01N 45°25' W 083°47'0 0.0
2017-Dec-09 14:30N 45°25' W 083°47'0 0.0
2017-Dec-09 14:00N 45°25' W 083°47'0 0.0
2017-Dec-09 13:30N 45°25' W 083°47'0 0.0
2017-Dec-09 13:00N 45°25' W 083°47'0 0.0
2017-Dec-09 12:30N 45°25' W 083°47'0 0.0
2017-Dec-09 12:01N 45°25' W 083°47'0 0.0
2017-Dec-09 11:30N 45°25' W 083°47'0 0.0
2017-Dec-09 11:00N 45°25' W 083°47'0 0.0
2017-Dec-09 10:30N 45°25' W 083°47'0 0.0
2017-Dec-09 10:00N 45°25' W 083°47'0 0.0
2017-Dec-09 09:30N 45°25' W 083°47'0 0.0
2017-Dec-09 09:00N 45°25' W 083°47'0 0.0
2017-Dec-09 08:30N 45°25' W 083°47'0 0.0
2017-Dec-09 08:00N 45°25' W 083°47'0 0.0
2017-Dec-09 07:30N 45°25' W 083°47'0 0.0
2017-Dec-09 07:00N 45°25' W 083°47'0 0.0
2017-Dec-09 06:31N 45°25' W 083°47'0 0.0
2017-Dec-09 06:00N 45°25' W 083°47'0 0.0
2017-Dec-09 05:30N 45°25' W 083°47'0 0.0
2017-Dec-09 05:00N 45°25' W 083°47'0 0.0
2017-Dec-09 04:30N 45°25' W 083°47'0 0.0
2017-Dec-09 04:01N 45°25' W 083°47'0 0.0
2017-Dec-09 03:31N 45°25' W 083°47'0 0.0
2017-Dec-09 03:00N 45°25' W 083°47'0 0.0
2017-Dec-09 02:30N 45°25' W 083°47'0 0.0
2017-Dec-09 02:01N 45°25' W 083°47'0 0.0
2017-Dec-09 01:30N 45°25' W 083°47'0 0.0
2017-Dec-09 01:01N 45°25' W 083°47'0 0.7
2017-Dec-09 00:30N 45°25' W 083°47'1 2.6
2017-Dec-09 00:00N 45°26' W 083°46'511.0
2017-Dec-08 23:30N 45°31' W 083°51'612.3
2017-Dec-08 23:00N 45°34' W 083°58'1312.7
2017-Dec-08 21:58N 45°40' W 084°15'612.1
2017-Dec-08 21:30N 45°41' W 084°23'612.5
2017-Dec-08 21:01N 45°43' W 084°31'612.7
2017-Dec-08 20:30N 45°47' W 084°39'612.3
2017-Dec-08 20:00N 45°49' W 084°47'612.6
2017-Dec-08 19:30N 45°50' W 084°56'612.6
2017-Dec-08 19:00N 45°51' W 085°05'612.3
2017-Dec-08 18:30N 45°52' W 085°13'612.6
2017-Dec-08 18:01N 45°53' W 085°22'612.6
2017-Dec-08 17:31N 45°54' W 085°31'612.7
2017-Dec-08 17:00N 45°52' W 085°40'612.7
2017-Dec-08 16:30N 45°52' W 085°49'612.9
2017-Dec-08 16:01N 45°51' W 085°58'2211.8
2017-Dec-08 14:07N 45°38' W 086°25'213.0
2017-Dec-08 14:00N 45°37' W 086°26'13 0.3
2017-Dec-06 23:17N 45°48' W 086°16'3 9.6
2017-Dec-06 23:00N 45°50' W 086°14'5 8.2
2017-Dec-06 22:27N 45°53' W 086°09'4 7.9
2017-Dec-06 22:00N 45°53' W 086°04'4 7.9
2017-Dec-06 21:30N 45°53' W 085°58'4 7.8
2017-Dec-06 21:00N 45°52' W 085°52'  
2017-Dec-04 10:07N 45°33' W 083°55'212.7
2017-Dec-04 10:00N 45°32' W 083°53'611.7
2017-Dec-04 09:30N 45°28' W 083°46'4 6.0
2017-Dec-04 08:53N 45°25' W 083°47'0 0.0
2017-Dec-04 08:29N 45°25' W 083°47'0 0.1
2017-Dec-04 07:56N 45°25' W 083°47'0 0.0
2017-Dec-04 07:29N 45°25' W 083°47'0 0.0
2017-Dec-04 06:59N 45°25' W 083°47'0 0.0
2017-Dec-04 06:29N 45°25' W 083°47'0 0.0
2017-Dec-04 05:59N 45°25' W 083°47'0 0.0
2017-Dec-04 05:29N 45°25' W 083°47'0 0.0
2017-Dec-04 04:56N 45°25' W 083°47'0 0.0
2017-Dec-04 04:29N 45°25' W 083°47'0 0.1
2017-Dec-04 03:59N 45°25' W 083°47'0 0.0
2017-Dec-04 03:29N 45°25' W 083°47'0 0.0
2017-Dec-04 02:59N 45°25' W 083°47'0 0.0
2017-Dec-04 02:29N 45°25' W 083°47'0 0.0
2017-Dec-04 01:59N 45°25' W 083°47'0 0.4
2017-Dec-04 01:29N 45°25' W 083°47'1 1.3
2017-Dec-04 00:59N 45°25' W 083°46'1 1.2
2017-Dec-04 00:29N 45°26' W 083°47'0 0.0
2017-Dec-03 23:59N 45°26' W 083°47'0 0.0
2017-Dec-03 23:29N 45°26' W 083°47'0 0.0
2017-Dec-03 22:59N 45°26' W 083°47'0 0.1
2017-Dec-03 22:29N 45°26' W 083°47'0 0.1
2017-Dec-03 21:59N 45°26' W 083°47'0 0.1
2017-Dec-03 21:29N 45°26' W 083°47'0 0.1
2017-Dec-03 20:59N 45°26' W 083°47'0 0.1
2017-Dec-03 20:29N 45°26' W 083°47'0 0.0
2017-Dec-03 19:56N 45°26' W 083°47'0 0.0
2017-Dec-03 19:29N 45°26' W 083°47'0 0.0
2017-Dec-03 18:59N 45°26' W 083°47'0 0.1
2017-Dec-03 18:30N 45°26' W 083°47'0 0.0
2017-Dec-03 18:00N 45°26' W 083°47'0 0.0
2017-Dec-03 17:31N 45°26' W 083°47'0 0.0
2017-Dec-03 17:00N 45°26' W 083°47'0 0.1
2017-Dec-03 16:30N 45°26' W 083°47'0 0.1
2017-Dec-03 16:01N 45°26' W 083°47'0 0.0
2017-Dec-03 15:30N 45°26' W 083°47'0 0.1
2017-Dec-03 15:00N 45°26' W 083°47'2 5.0
2017-Dec-03 14:30N 45°28' W 083°49'612.2
2017-Dec-03 14:00N 45°33' W 083°54'612.6
2017-Dec-03 13:30N 45°36' W 084°02'912.6
2017-Dec-03 12:46N 45°40' W 084°14'312.3
2017-Dec-03 12:29N 45°41' W 084°18'612.3
2017-Dec-03 12:00N 45°42' W 084°27'612.4
2017-Dec-03 11:30N 45°45' W 084°35'612.6
2017-Dec-03 11:00N 45°49' W 084°42'612.6
2017-Dec-03 10:30N 45°50' W 084°51'612.6
2017-Dec-03 10:00N 45°51' W 084°60'612.4
2017-Dec-03 09:30N 45°52' W 085°09'612.5
2017-Dec-03 09:00N 45°52' W 085°18'612.5
2017-Dec-03 08:30N 45°53' W 085°26'612.5
2017-Dec-03 08:00N 45°54' W 085°35'612.4
2017-Dec-03 07:30N 45°55' W 085°44'7 1.6
2017-Dec-03 03:17N 45°58' W 085°52'0 0.0
2017-Dec-03 02:57N 45°58' W 085°52'1 1.2
2017-Dec-03 02:24N 45°57' W 085°53'1 2.6
2017-Dec-03 02:00N 45°56' W 085°53'2 3.7
2017-Dec-03 01:30N 45°55' W 085°53'612.3
2017-Dec-03 01:00N 45°49' W 085°56'10 0.2
2017-Dec-01 01:30N 45°51' W 085°42'1911.1
2017-Nov-30 23:48N 45°52' W 085°15'311.4
2017-Nov-30 23:30N 45°52' W 085°10'611.6
2017-Nov-30 23:00N 45°51' W 085°02'611.1
2017-Nov-30 22:30N 45°50' W 084°54'510.8
2017-Nov-30 22:00N 45°49' W 084°46'1210.8
2017-Nov-30 20:51N 45°43' W 084°31'410.8
2017-Nov-30 20:30N 45°42' W 084°26'2711.2
2017-Nov-30 18:07N 45°33' W 083°50'111.8
2017-Nov-30 18:00N 45°32' W 083°48'611.8
2017-Nov-30 17:30N 45°30' W 083°40'612.1
2017-Nov-30 17:00N 45°27' W 083°33'612.1
2017-Nov-30 16:30N 45°24' W 083°25'  
Track history (hours):
 
Tides and Currents Weather Stations Pressure Air Temp Water Temp Dewpoint Dewpoint Depression Visibility Wind Speed Wind Dir Waves Ship Positions

MiSS Molly

Owner: LONGLEY, WALTER A, TOPSHAM, ME. More information available from US FCC via Universal Licensing System and Coast Guard Vessel Documentation Center.

Last reported at 2017-Dec-09 22:46 UTC. Time now 2018-May-20 12:08 UTC.
Position N 45°24' W 083°28'.
Warning: this ship's position is months out of date.

Length 194 m; draft 7.1 m.

Type: Cargo ship. MMSI: 366938760.

Date/timePositionNaut miles runAvg speedWind from/ knotsBaromVisibWave heightAir tempDewpointWater temp
2017-Dec-09 22:46N 45°24' W 083°28'312.1
2017-Dec-09 22:30N 45°24' W 083°32'612.0
2017-Dec-09 22:00N 45°26' W 083°41'5 9.0
2017-Dec-09 21:30N 45°25' W 083°47'0 0.3
2017-Dec-09 21:00N 45°25' W 083°47'0 0.0
2017-Dec-09 20:30N 45°25' W 083°47'0 0.1
2017-Dec-09 20:00N 45°25' W 083°47'0 0.0
2017-Dec-09 19:30N 45°25' W 083°47'0 0.0
2017-Dec-09 19:00N 45°25' W 083°47'0 0.0
2017-Dec-09 18:30N 45°25' W 083°47'0 0.0
2017-Dec-09 18:00N 45°25' W 083°47'0 0.0
2017-Dec-09 17:30N 45°25' W 083°47'0 0.0
2017-Dec-09 17:00N 45°25' W 083°47'0 0.0
2017-Dec-09 16:31N 45°25' W 083°47'0 0.0
2017-Dec-09 16:00N 45°25' W 083°47'0 0.0
2017-Dec-09 15:30N 45°25' W 083°47'0 0.0
2017-Dec-09 15:01N 45°25' W 083°47'0 0.0
2017-Dec-09 14:30N 45°25' W 083°47'0 0.0
2017-Dec-09 14:00N 45°25' W 083°47'0 0.0
2017-Dec-09 13:30N 45°25' W 083°47'0 0.0
2017-Dec-09 13:00N 45°25' W 083°47'0 0.0
2017-Dec-09 12:30N 45°25' W 083°47'0 0.0
2017-Dec-09 12:01N 45°25' W 083°47'0 0.0
2017-Dec-09 11:30N 45°25' W 083°47'0 0.0
2017-Dec-09 11:00N 45°25' W 083°47'0 0.0
2017-Dec-09 10:30N 45°25' W 083°47'0 0.0
2017-Dec-09 10:00N 45°25' W 083°47'0 0.0
2017-Dec-09 09:30N 45°25' W 083°47'0 0.0
2017-Dec-09 09:00N 45°25' W 083°47'0 0.0
2017-Dec-09 08:30N 45°25' W 083°47'0 0.0
2017-Dec-09 08:00N 45°25' W 083°47'0 0.0
2017-Dec-09 07:30N 45°25' W 083°47'0 0.0
2017-Dec-09 07:00N 45°25' W 083°47'0 0.0
2017-Dec-09 06:31N 45°25' W 083°47'0 0.0
2017-Dec-09 06:00N 45°25' W 083°47'0 0.0
2017-Dec-09 05:30N 45°25' W 083°47'0 0.0
2017-Dec-09 05:00N 45°25' W 083°47'0 0.0
2017-Dec-09 04:30N 45°25' W 083°47'0 0.0
2017-Dec-09 04:01N 45°25' W 083°47'0 0.0
2017-Dec-09 03:31N 45°25' W 083°47'0 0.0
2017-Dec-09 03:00N 45°25' W 083°47'0 0.0
2017-Dec-09 02:30N 45°25' W 083°47'0 0.0
2017-Dec-09 02:01N 45°25' W 083°47'0 0.0
2017-Dec-09 01:30N 45°25' W 083°47'0 0.0
2017-Dec-09 01:01N 45°25' W 083°47'0 0.7
2017-Dec-09 00:30N 45°25' W 083°47'1 2.6
2017-Dec-09 00:00N 45°26' W 083°46'511.0
2017-Dec-08 23:30N 45°31' W 083°51'612.3
2017-Dec-08 23:00N 45°34' W 083°58'1312.7
2017-Dec-08 21:58N 45°40' W 084°15'612.1
2017-Dec-08 21:30N 45°41' W 084°23'612.5
2017-Dec-08 21:01N 45°43' W 084°31'612.7
2017-Dec-08 20:30N 45°47' W 084°39'612.3
2017-Dec-08 20:00N 45°49' W 084°47'612.6
2017-Dec-08 19:30N 45°50' W 084°56'612.6
2017-Dec-08 19:00N 45°51' W 085°05'612.3
2017-Dec-08 18:30N 45°52' W 085°13'612.6
2017-Dec-08 18:01N 45°53' W 085°22'612.6
2017-Dec-08 17:31N 45°54' W 085°31'612.7
2017-Dec-08 17:00N 45°52' W 085°40'612.7
2017-Dec-08 16:30N 45°52' W 085°49'612.9
2017-Dec-08 16:01N 45°51' W 085°58'2211.8
2017-Dec-08 14:07N 45°38' W 086°25'213.0
2017-Dec-08 14:00N 45°37' W 086°26'13 0.3
2017-Dec-06 23:17N 45°48' W 086°16'3 9.6
2017-Dec-06 23:00N 45°50' W 086°14'5 8.2
2017-Dec-06 22:27N 45°53' W 086°09'4 7.9
2017-Dec-06 22:00N 45°53' W 086°04'4 7.9
2017-Dec-06 21:30N 45°53' W 085°58'4 7.8
2017-Dec-06 21:00N 45°52' W 085°52'  
2017-Dec-04 10:07N 45°33' W 083°55'212.7
2017-Dec-04 10:00N 45°32' W 083°53'611.7
2017-Dec-04 09:30N 45°28' W 083°46'4 6.0
2017-Dec-04 08:53N 45°25' W 083°47'0 0.0
2017-Dec-04 08:29N 45°25' W 083°47'0 0.1
2017-Dec-04 07:56N 45°25' W 083°47'0 0.0
2017-Dec-04 07:29N 45°25' W 083°47'0 0.0
2017-Dec-04 06:59N 45°25' W 083°47'0 0.0
2017-Dec-04 06:29N 45°25' W 083°47'0 0.0
2017-Dec-04 05:59N 45°25' W 083°47'0 0.0
2017-Dec-04 05:29N 45°25' W 083°47'0 0.0
2017-Dec-04 04:56N 45°25' W 083°47'0 0.0
2017-Dec-04 04:29N 45°25' W 083°47'0 0.1
2017-Dec-04 03:59N 45°25' W 083°47'0 0.0
2017-Dec-04 03:29N 45°25' W 083°47'0 0.0
2017-Dec-04 02:59N 45°25' W 083°47'0 0.0
2017-Dec-04 02:29N 45°25' W 083°47'0 0.0
2017-Dec-04 01:59N 45°25' W 083°47'0 0.4
2017-Dec-04 01:29N 45°25' W 083°47'1 1.3
2017-Dec-04 00:59N 45°25' W 083°46'1 1.2
2017-Dec-04 00:29N 45°26' W 083°47'0 0.0
2017-Dec-03 23:59N 45°26' W 083°47'0 0.0
2017-Dec-03 23:29N 45°26' W 083°47'0 0.0
2017-Dec-03 22:59N 45°26' W 083°47'0 0.1
2017-Dec-03 22:29N 45°26' W 083°47'0 0.1
2017-Dec-03 21:59N 45°26' W 083°47'0 0.1
2017-Dec-03 21:29N 45°26' W 083°47'0 0.1
2017-Dec-03 20:59N 45°26' W 083°47'0 0.1
2017-Dec-03 20:29N 45°26' W 083°47'0 0.0
2017-Dec-03 19:56N 45°26' W 083°47'0 0.0
2017-Dec-03 19:29N 45°26' W 083°47'0 0.0
2017-Dec-03 18:59N 45°26' W 083°47'0 0.1
2017-Dec-03 18:30N 45°26' W 083°47'0 0.0
2017-Dec-03 18:00N 45°26' W 083°47'0 0.0
2017-Dec-03 17:31N 45°26' W 083°47'0 0.0
2017-Dec-03 17:00N 45°26' W 083°47'0 0.1
2017-Dec-03 16:30N 45°26' W 083°47'0 0.1
2017-Dec-03 16:01N 45°26' W 083°47'0 0.0
2017-Dec-03 15:30N 45°26' W 083°47'0 0.1
2017-Dec-03 15:00N 45°26' W 083°47'2 5.0
2017-Dec-03 14:30N 45°28' W 083°49'612.2
2017-Dec-03 14:00N 45°33' W 083°54'612.6
2017-Dec-03 13:30N 45°36' W 084°02'912.6
2017-Dec-03 12:46N 45°40' W 084°14'312.3
2017-Dec-03 12:29N 45°41' W 084°18'612.3
2017-Dec-03 12:00N 45°42' W 084°27'612.4
2017-Dec-03 11:30N 45°45' W 084°35'612.6
2017-Dec-03 11:00N 45°49' W 084°42'612.6
2017-Dec-03 10:30N 45°50' W 084°51'612.6
2017-Dec-03 10:00N 45°51' W 084°60'612.4
2017-Dec-03 09:30N 45°52' W 085°09'612.5
2017-Dec-03 09:00N 45°52' W 085°18'612.5
2017-Dec-03 08:30N 45°53' W 085°26'612.5
2017-Dec-03 08:00N 45°54' W 085°35'612.4
2017-Dec-03 07:30N 45°55' W 085°44'7 1.6
2017-Dec-03 03:17N 45°58' W 085°52'0 0.0
2017-Dec-03 02:57N 45°58' W 085°52'1 1.2
2017-Dec-03 02:24N 45°57' W 085°53'1 2.6
2017-Dec-03 02:00N 45°56' W 085°53'2 3.7
2017-Dec-03 01:30N 45°55' W 085°53'612.3
2017-Dec-03 01:00N 45°49' W 085°56'10 0.2
2017-Dec-01 01:30N 45°51' W 085°42'1911.1
2017-Nov-30 23:48N 45°52' W 085°15'311.4
2017-Nov-30 23:30N 45°52' W 085°10'611.6
2017-Nov-30 23:00N 45°51' W 085°02'611.1
2017-Nov-30 22:30N 45°50' W 084°54'510.8
2017-Nov-30 22:00N 45°49' W 084°46'1210.8
2017-Nov-30 20:51N 45°43' W 084°31'410.8
2017-Nov-30 20:30N 45°42' W 084°26'2711.2
2017-Nov-30 18:07N 45°33' W 083°50'111.8
2017-Nov-30 18:00N 45°32' W 083°48'611.8
2017-Nov-30 17:30N 45°30' W 083°40'612.1
2017-Nov-30 17:00N 45°27' W 083°33'612.1
2017-Nov-30 16:30N 45°24' W 083°25'  

Dump ship's entire track history